KRNT - Renton
Updated: Tue, 11-Dec-2018 10:53am PST
Light rain, Mist, Overcast
Light rain, Mist, Overcast
 Wind from ESE
Wind: ESE 5 mph , 7 km/h
Temperature: 46°F , 8°C
Wind Chill: 44°F , 7°C
Dew Point: 45°F , 7°C
Humidity: 93%
Barometer: 29.80 inHg , 1009.1 hPa
Summary: Light rain, Mist
Visibility: 5 miles , 8 km
Cloud details: 3300 ft
2018/12/11 18:53 KRNT 111853Z 11004KT 5SM -RA BR OVC033 08/07 A2980 RMK AO2 SLP096 P0001 T00780067
KBFI - Seattle-Boeing
Updated: Tue, 11-Dec-2018 10:53am PST
Light rain, Overcast
Light rain, Overcast
 Wind from S
Wind: S 6 mph , 9 km/h
Temperature: 46°F , 8°C
Wind Chill: 43°F , 6°C
Dew Point: 45°F , 7°C
Humidity: 93%
Barometer: 29.81 inHg , 1009.5 hPa
Visibility: 9 miles , 14 km
Cloud details: 2400 ft
2018/12/11 18:53 KBFI 111853Z 17005KT 9SM -RA OVC024 08/07 A2981 RMK AO2 SLP093 P0004 T00830067
 
KSEA - Seattle
Updated: Tue, 11-Dec-2018 10:53am PST
Light rain, Mist, Overcast
Light rain, Mist, Overcast
 Wind from S
Wind: S 13 mph , 20 km/h
Temperature: 48°F , 9°C
Wind Chill: 43°F , 6°C
Dew Point: 45°F , 7°C
Humidity: 87%
Barometer: 29.79 inHg , 1008.8 hPa
Summary: Light rain, Mist
Visibility: 5 miles , 8 km
Cloud details: 2300 ft
2900 ft
2018/12/11 18:53 KSEA 111853Z 18011KT 5SM -RA BR BKN023 OVC029 09/07 A2979 RMK AO2 SLP097 P0003 T00890067
KSMP - Stampede Pass
Updated: Tue, 11-Dec-2018 10:45am PST
Freezing rain, Mist, Overcast
Freezing rain, Mist, Overcast
 Wind from E
Wind: E 5 mph , 7 km/h
Temperature: 28°F , -2°C
Wind Chill: 22°F , -6°C
Dew Point: 27°F , -3°C
Humidity: 93%
Barometer: 29.81 inHg , 1009.5 hPa
Summary: Freezing rain, Mist
Visibility: 1 mile , 2 km
Cloud details: 1000 ft
2018/12/11 18:45 KSMP 111845Z AUTO 10004KT 1SM FZRA BR OVC010 M02/M03 A2981 RMK AO2 VIS 1/2V1 1/2 UPE02B28E43FZRAB02E12B43SNB12E28 P0012 I1001 T10171033